Time;durP1;ratioP1;P1;durP2;ratioP2;P2;SDS_P1;SDS_P2;PMS_P1;PMS_P2;Temp;Humidity;BMP_temperature;BMP_pressure;BME280_temperature;BME280_humidity;BME280_pressure;Samples;Min_cycle;Max_cycle;Signal;HPM_P1;HPM_P2
2021/05/26 00:02:16;;;;;;;2.97;1.77;;;9.00;99.90;;;;;;5005227;28;20160;-73
2021/05/26 00:04:41;;;;;;;3.08;1.65;;;9.00;99.90;;;;;;5023709;28;20870;-73
2021/05/26 00:07:07;;;;;;;2.30;1.42;;;9.00;99.90;;;;;;5017814;28;20074;-73
2021/05/26 00:09:33;;;;;;;4.78;2.10;;;9.00;99.90;;;;;;5025625;28;20105;-73
2021/05/26 00:11:58;;;;;;;5.78;2.03;;;9.10;99.90;;;;;;5020742;28;20108;-73
2021/05/26 00:14:24;;;;;;;4.57;1.98;;;9.00;99.90;;;;;;5024297;28;20081;-73
2021/05/26 00:16:51;;;;;;;2.58;1.73;;;8.90;99.90;;;;;;5004613;28;20592;-73
2021/05/26 00:19:16;;;;;;;2.80;1.33;;;9.00;99.90;;;;;;5025101;28;20533;-74
2021/05/26 00:21:42;;;;;;;2.70;1.40;;;9.00;99.90;;;;;;5020289;28;20106;-73
2021/05/26 00:24:08;;;;;;;3.53;1.38;;;8.90;99.90;;;;;;5020780;28;20078;-74
2021/05/26 00:26:34;;;;;;;1.33;0.80;;;8.90;99.90;;;;;;5012918;28;20086;-73
2021/05/26 00:28:59;;;;;;;3.42;1.10;;;8.70;99.90;;;;;;5013997;28;20078;-73
2021/05/26 00:31:25;;;;;;;5.22;0.70;;;8.70;99.90;;;;;;5011242;28;20087;-73
2021/05/26 00:33:51;;;;;;;1.30;0.45;;;8.70;99.90;;;;;;5012157;28;20159;-74
2021/05/26 00:36:17;;;;;;;1.40;0.70;;;8.60;99.90;;;;;;5018976;28;20546;-73
2021/05/26 00:38:43;;;;;;;2.95;0.50;;;8.60;99.90;;;;;;5013470;28;20094;-73
2021/05/26 00:41:09;;;;;;;3.72;0.50;;;8.60;99.90;;;;;;5021289;28;20085;-73
2021/05/26 00:43:35;;;;;;;2.42;0.52;;;8.60;99.90;;;;;;5021147;28;20074;-73
2021/05/26 00:46:00;;;;;;;2.08;0.32;;;8.60;99.90;;;;;;5001223;28;20097;-73
2021/05/26 00:48:26;;;;;;;1.40;0.40;;;8.70;99.90;;;;;;5030585;28;20092;-74
2021/05/26 00:50:51;;;;;;;2.20;0.52;;;8.70;99.90;;;;;;5010891;28;20102;-72
2021/05/26 00:53:17;;;;;;;2.15;0.60;;;8.60;99.90;;;;;;5024195;28;20117;-73
2021/05/26 00:55:43;;;;;;;1.52;0.40;;;8.80;99.90;;;;;;5011848;28;20594;-72
2021/05/26 00:58:10;;;;;;;1.67;0.40;;;8.70;99.90;;;;;;5014300;28;20077;-74
2021/05/26 01:00:37;;;;;;;1.20;0.20;;;8.70;99.90;;;;;;5010532;28;20093;-73
2021/05/26 01:03:04;;;;;;;3.13;0.70;;;8.70;99.90;;;;;;5014488;28;21192;-74
2021/05/26 01:05:31;;;;;;;3.42;0.40;;;8.70;99.90;;;;;;5010389;28;20077;-74
2021/05/26 01:07:57;;;;;;;1.42;0.40;;;8.70;99.90;;;;;;5018982;28;20093;-74
2021/05/26 01:10:25;;;;;;;1.63;0.43;;;8.80;99.90;;;;;;5001429;28;20091;-74
2021/05/26 01:12:51;;;;;;;2.38;0.55;;;8.80;99.90;;;;;;5027818;28;20086;-73
2021/05/26 01:15:18;;;;;;;1.70;0.50;;;8.70;99.90;;;;;;5005958;28;20476;-73
2021/05/26 01:17:44;;;;;;;0.40;0.40;;;8.80;99.90;;;;;;5023056;28;20097;-73
2021/05/26 01:20:18;;;;;;;1.83;0.60;;;8.80;99.90;;;;;;5006518;28;20656;-74
2021/05/26 01:22:44;;;;;;;1.38;0.68;;;8.80;99.90;;;;;;5020285;28;20100;-74
2021/05/26 01:25:10;;;;;;;0.95;0.38;;;8.80;99.90;;;;;;5005409;28;20081;-74
2021/05/26 01:27:35;;;;;;;1.20;0.40;;;8.90;99.90;;;;;;5013007;28;20453;-74
2021/05/26 01:30:02;;;;;;;0.98;0.88;;;8.90;99.90;;;;;;4997111;28;20612;-74
2021/05/26 01:32:28;;;;;;;1.08;0.50;;;8.90;99.90;;;;;;5008470;28;20163;-74
2021/05/26 01:34:54;;;;;;;1.27;0.65;;;8.80;99.90;;;;;;5021068;28;20086;-74
2021/05/26 01:37:19;;;;;;;2.08;0.63;;;8.70;99.90;;;;;;5023474;28;20101;-74
2021/05/26 01:39:49;;;;;;;1.40;0.70;;;8.70;99.90;;;;;;5007237;28;20070;-73
2021/05/26 01:42:33;;;;;;;1.02;0.55;;;8.70;99.90;;;;;;5010708;28;20576;-74
2021/05/26 01:45:00;;;;;;;1.07;0.50;;;8.70;99.90;;;;;;4992814;28;20513;-74
2021/05/26 01:47:25;;;;;;;0.52;0.50;;;8.60;99.90;;;;;;5037250;28;20091;-74
2021/05/26 01:49:51;;;;;;;2.58;0.60;;;8.50;99.90;;;;;;5025267;28;20085;-73
2021/05/26 01:52:16;;;;;;;2.22;0.52;;;8.40;99.90;;;;;;5014428;28;20094;-73
2021/05/26 01:54:42;;;;;;;2.45;0.60;;;8.40;99.90;;;;;;5022019;28;20100;-72
2021/05/26 01:57:08;;;;;;;1.30;0.50;;;8.40;99.90;;;;;;5013017;28;20154;-74
2021/05/26 01:59:33;;;;;;;2.90;0.47;;;8.30;99.90;;;;;;5019376;28;20105;-74
2021/05/26 02:01:59;;;;;;;1.33;0.77;;;8.20;99.90;;;;;;5003936;28;21715;-74
2021/05/26 02:04:25;;;;;;;1.92;0.70;;;8.00;99.90;;;;;;5021130;28;20089;-73
2021/05/26 02:07:10;;;;;;;0.55;0.43;;;8.00;99.90;;;;;;5016746;28;20082;-74
2021/05/26 02:09:36;;;;;;;0.98;0.50;;;7.90;99.90;;;;;;5023703;28;20155;-74
2021/05/26 02:14:47;;;;;;;0.40;0.40;;;7.90;99.90;;;;;;5010204;28;20082;-74
2021/05/26 02:17:12;;;;;;;1.30;0.70;;;7.90;99.90;;;;;;5031932;28;20067;-73
2021/05/26 02:19:38;;;;;;;1.17;0.40;;;7.80;99.90;;;;;;5024263;28;20087;-72
2021/05/26 02:22:03;;;;;;;1.33;0.40;;;7.80;99.90;;;;;;5024447;28;20104;-73
2021/05/26 02:24:29;;;;;;;0.75;0.43;;;7.80;99.90;;;;;;5004886;28;20085;-73
2021/05/26 02:26:55;;;;;;;0.70;0.45;;;7.70;99.90;;;;;;5030648;28;20452;-74
2021/05/26 02:29:20;;;;;;;3.20;0.68;;;7.70;99.90;;;;;;5017333;28;20117;-73
2021/05/26 02:31:46;;;;;;;2.33;0.70;;;7.80;99.90;;;;;;5026383;28;20089;-73
2021/05/26 02:34:12;;;;;;;1.85;0.70;;;7.80;99.90;;;;;;5007063;28;20505;-74
2021/05/26 02:36:39;;;;;;;2.67;0.45;;;7.80;99.90;;;;;;5016632;28;20149;-74
2021/05/26 02:39:06;;;;;;;1.67;0.43;;;7.80;99.90;;;;;;5033131;28;20081;-73
2021/05/26 02:41:31;;;;;;;0.88;0.40;;;7.80;99.90;;;;;;5024499;28;20597;-74
2021/05/26 02:43:57;;;;;;;1.20;0.50;;;7.70;99.90;;;;;;5002601;28;20081;-73
2021/05/26 02:46:23;;;;;;;1.58;0.63;;;7.70;99.90;;;;;;5012441;28;20542;-73
2021/05/26 02:48:48;;;;;;;1.92;0.40;;;7.70;99.90;;;;;;5021818;28;20161;-74
2021/05/26 02:51:14;;;;;;;0.85;0.40;;;7.70;99.90;;;;;;5024150;28;20101;-73
2021/05/26 02:53:39;;;;;;;2.20;0.68;;;7.70;99.90;;;;;;5024611;28;20066;-72
2021/05/26 02:56:05;;;;;;;4.30;0.88;;;7.70;99.90;;;;;;5019214;28;20078;-73
2021/05/26 02:58:31;;;;;;;1.83;0.77;;;7.70;99.90;;;;;;5001313;28;20476;-73
2021/05/26 03:00:56;;;;;;;1.83;0.50;;;7.60;99.90;;;;;;4999354;28;20140;-73
2021/05/26 03:03:22;;;;;;;3.03;0.50;;;7.60;99.90;;;;;;5019615;28;20120;-73
2021/05/26 03:05:47;;;;;;;1.50;0.63;;;7.70;99.90;;;;;;5017617;28;20842;-73
2021/05/26 03:08:13;;;;;;;2.38;0.80;;;7.70;99.90;;;;;;5018916;28;20134;-73
2021/05/26 03:10:39;;;;;;;1.75;0.60;;;7.80;99.90;;;;;;5010833;28;20890;-73
2021/05/26 03:13:04;;;;;;;1.77;0.52;;;7.60;99.90;;;;;;5023998;28;20136;-73
2021/05/26 03:15:30;;;;;;;0.47;0.40;;;7.60;99.90;;;;;;5011787;28;20457;-73
2021/05/26 03:17:55;;;;;;;2.05;0.47;;;7.50;99.90;;;;;;5003877;28;20113;-73
2021/05/26 03:20:21;;;;;;;1.58;0.40;;;7.60;99.90;;;;;;5026163;28;20089;-73
2021/05/26 03:22:47;;;;;;;0.43;0.35;;;7.60;99.90;;;;;;5020756;28;20875;-73
2021/05/26 03:25:16;;;;;;;1.75;0.57;;;7.60;99.90;;;;;;5016785;28;20077;-73
2021/05/26 03:27:42;;;;;;;2.80;0.73;;;7.60;99.90;;;;;;5028101;28;20510;-72
2021/05/26 03:30:17;;;;;;;1.33;0.70;;;7.60;99.90;;;;;;5017063;28;20093;-73
2021/05/26 03:32:43;;;;;;;1.02;0.50;;;7.60;99.90;;;;;;5021856;28;20490;-73
2021/05/26 03:35:11;;;;;;;1.65;0.50;;;7.50;99.90;;;;;;5017426;28;20081;-73
2021/05/26 03:37:37;;;;;;;2.60;0.65;;;7.50;99.90;;;;;;4997024;28;20084;-73
2021/05/26 03:40:05;;;;;;;1.38;0.60;;;7.60;99.90;;;;;;5012971;28;20073;-73
2021/05/26 03:42:30;;;;;;;1.25;0.70;;;7.60;99.90;;;;;;5001134;28;20090;-73
2021/05/26 03:44:56;;;;;;;1.00;0.40;;;7.60;99.90;;;;;;4999134;28;20109;-73
2021/05/26 03:47:22;;;;;;;1.05;0.47;;;7.50;99.90;;;;;;5011956;28;20128;-73
2021/05/26 03:49:47;;;;;;;2.00;0.55;;;7.50;99.90;;;;;;5021074;28;20096;-73
2021/05/26 03:52:13;;;;;;;1.67;0.77;;;7.50;99.90;;;;;;5022724;28;20097;-74
2021/05/26 03:54:39;;;;;;;5.10;0.50;;;7.60;99.90;;;;;;5025954;28;20082;-74
2021/05/26 03:57:05;;;;;;;0.75;0.50;;;7.60;99.90;;;;;;5031015;28;20168;-74
2021/05/26 03:59:31;;;;;;;1.63;0.60;;;7.70;99.90;;;;;;4993301;28;20081;-73
2021/05/26 04:01:57;;;;;;;1.65;0.55;;;7.60;99.90;;;;;;5018150;28;20493;-73
2021/05/26 04:04:23;;;;;;;1.25;0.43;;;7.60;99.90;;;;;;5012818;28;20079;-73
2021/05/26 04:06:48;;;;;;;2.38;0.47;;;7.80;99.90;;;;;;5009549;28;20106;-73
2021/05/26 04:09:14;;;;;;;1.23;0.47;;;7.80;99.90;;;;;;5032070;28;20085;-74
2021/05/26 04:11:40;;;;;;;2.50;0.65;;;7.80;99.90;;;;;;5021651;28;20083;-74
2021/05/26 04:14:06;;;;;;;1.00;0.50;;;7.90;99.90;;;;;;5005266;28;20078;-73
2021/05/26 04:16:32;;;;;;;0.80;0.45;;;8.00;99.90;;;;;;5026391;28;20083;-73
2021/05/26 04:18:58;;;;;;;1.95;0.47;;;8.00;99.90;;;;;;5012803;28;20569;-73
2021/05/26 04:21:24;;;;;;;1.65;0.20;;;8.10;99.90;;;;;;5016476;28;20431;-73
2021/05/26 04:23:49;;;;;;;1.08;0.35;;;8.10;99.90;;;;;;5024679;28;20135;-73
2021/05/26 04:26:15;;;;;;;0.88;0.50;;;8.20;99.90;;;;;;5024132;28;20085;-73
2021/05/26 04:28:45;;;;;;;0.93;0.40;;;8.20;99.90;;;;;;5011911;28;20121;-73
2021/05/26 04:31:12;;;;;;;3.15;0.70;;;8.40;99.90;;;;;;5012608;28;20102;-73
2021/05/26 04:33:38;;;;;;;0.88;0.50;;;8.40;99.90;;;;;;5006390;28;20576;-73
2021/05/26 04:36:04;;;;;;;0.98;0.50;;;8.40;99.90;;;;;;5003998;28;20176;-73
2021/05/26 04:38:30;;;;;;;3.40;1.05;;;8.50;99.90;;;;;;5024836;28;20469;-73
2021/05/26 04:40:55;;;;;;;2.78;0.50;;;8.50;99.90;;;;;;5025325;28;20082;-73
2021/05/26 04:43:21;;;;;;;1.30;0.40;;;8.60;99.90;;;;;;5025095;28;20949;-73
2021/05/26 04:45:47;;;;;;;1.80;0.30;;;8.70;99.90;;;;;;5006412;28;20078;-73
2021/05/26 04:48:12;;;;;;;3.42;0.47;;;8.70;99.90;;;;;;5023269;28;20450;-73
2021/05/26 04:50:38;;;;;;;1.80;0.43;;;8.70;99.90;;;;;;5023313;28;20121;-73
2021/05/26 04:53:03;;;;;;;2.15;0.38;;;8.70;99.90;;;;;;5001169;28;20104;-73
2021/05/26 04:55:29;;;;;;;1.52;0.40;;;8.80;99.90;;;;;;5021967;28;20070;-73
2021/05/26 04:58:02;;;;;;;1.30;0.43;;;8.80;99.90;;;;;;5021657;28;20555;-73
2021/05/26 05:00:28;;;;;;;2.28;0.50;;;8.90;99.90;;;;;;5014328;28;20124;-74
2021/05/26 05:02:56;;;;;;;5.47;0.90;;;8.90;99.90;;;;;;5026224;28;20097;-74
2021/05/26 05:05:22;;;;;;;0.95;0.40;;;9.00;99.90;;;;;;5025418;28;20165;-74
2021/05/26 05:07:48;;;;;;;2.13;0.43;;;9.10;99.90;;;;;;5014747;28;20148;-74
2021/05/26 05:10:14;;;;;;;0.98;0.50;;;9.20;99.90;;;;;;5023184;28;20819;-74
2021/05/26 05:12:40;;;;;;;1.20;0.40;;;9.20;99.90;;;;;;5010586;28;20090;-74
2021/05/26 05:15:07;;;;;;;2.20;0.70;;;9.40;99.90;;;;;;5024730;28;20074;-75
2021/05/26 05:17:32;;;;;;;2.90;0.60;;;9.50;99.90;;;;;;5019751;28;20718;-74
2021/05/26 05:19:58;;;;;;;1.33;0.40;;;9.50;99.90;;;;;;5012037;28;20089;-74
2021/05/26 05:22:24;;;;;;;2.95;0.40;;;9.60;99.90;;;;;;5027917;28;20105;-74
2021/05/26 05:24:49;;;;;;;0.35;0.30;;;9.70;99.90;;;;;;5020431;28;20074;-73
2021/05/26 05:27:15;;;;;;;0.85;0.20;;;9.70;99.90;;;;;;5009619;28;20069;-73
2021/05/26 05:29:40;;;;;;;2.53;0.40;;;9.80;99.90;;;;;;5001833;28;20093;-72
2021/05/26 05:32:06;;;;;;;2.55;0.55;;;9.90;99.90;;;;;;5028653;28;20105;-74
2021/05/26 05:34:32;;;;;;;2.55;0.40;;;9.90;99.90;;;;;;5022737;28;20460;-73
2021/05/26 05:36:57;;;;;;;1.92;0.60;;;10.00;99.90;;;;;;5015677;28;20086;-74
2021/05/26 05:39:23;;;;;;;0.80;0.30;;;10.10;99.90;;;;;;4998026;28;20086;-73
2021/05/26 05:41:49;;;;;;;0.85;0.20;;;10.20;99.90;;;;;;5011893;28;20082;-74
2021/05/26 05:44:14;;;;;;;0.30;0.20;;;10.30;99.90;;;;;;5016453;28;20086;-74
2021/05/26 05:46:40;;;;;;;1.33;0.30;;;10.40;99.90;;;;;;5017751;28;20145;-74
2021/05/26 05:49:06;;;;;;;1.55;0.50;;;10.50;99.90;;;;;;5027846;28;20104;-73
2021/05/26 05:51:31;;;;;;;3.30;0.90;;;10.60;99.90;;;;;;5028556;28;20094;-74
2021/05/26 05:53:57;;;;;;;1.25;0.40;;;10.70;99.90;;;;;;5015289;28;20695;-74
2021/05/26 05:56:22;;;;;;;1.85;0.30;;;10.80;99.90;;;;;;4997935;28;20438;-74
2021/05/26 05:58:48;;;;;;;0.77;0.30;;;10.90;99.90;;;;;;4992673;28;20089;-73
2021/05/26 06:01:14;;;;;;;0.57;0.40;;;10.90;99.90;;;;;;5015218;28;20096;-75
2021/05/26 06:03:39;;;;;;;0.63;0.30;;;11.00;99.90;;;;;;5021617;28;20077;-74
2021/05/26 06:06:05;;;;;;;1.30;0.35;;;11.10;99.90;;;;;;5015449;28;20090;-74
2021/05/26 06:08:31;;;;;;;0.70;0.30;;;11.30;99.90;;;;;;5003168;28;20082;-74
2021/05/26 06:10:56;;;;;;;1.77;0.20;;;11.40;99.90;;;;;;5016008;28;20630;-74
2021/05/26 06:13:22;;;;;;;1.20;0.40;;;11.50;99.90;;;;;;5003185;28;20093;-74
2021/05/26 06:15:48;;;;;;;2.83;0.80;;;11.60;99.90;;;;;;5011329;28;20082;-74
2021/05/26 06:18:16;;;;;;;1.65;0.25;;;11.70;99.90;;;;;;5018126;28;21109;-73
2021/05/26 06:20:42;;;;;;;0.20;0.10;;;11.90;99.90;;;;;;4992144;28;20114;-74
2021/05/26 06:23:07;;;;;;;0.80;0.30;;;11.90;99.90;;;;;;5019354;28;20137;-75
2021/05/26 06:25:33;;;;;;;1.98;0.30;;;12.10;99.90;;;;;;5011901;28;20137;-75
2021/05/26 06:27:58;;;;;;;1.65;0.40;;;12.20;99.90;;;;;;5024848;28;20526;-74
2021/05/26 06:30:24;;;;;;;1.55;0.30;;;12.20;99.90;;;;;;5024898;28;20089;-74
2021/05/26 06:32:50;;;;;;;0.75;0.30;;;12.40;99.90;;;;;;5023900;28;20188;-73
2021/05/26 06:35:16;;;;;;;1.65;0.47;;;12.50;99.90;;;;;;5013811;28;20077;-76
2021/05/26 06:37:42;;;;;;;0.65;0.30;;;12.60;99.90;;;;;;5005550;28;20144;-75
2021/05/26 06:40:08;;;;;;;1.20;0.45;;;12.80;99.90;;;;;;5010532;28;20443;-75
2021/05/26 06:42:34;;;;;;;0.90;0.25;;;12.80;99.90;;;;;;5032192;28;20136;-76
2021/05/26 06:45:00;;;;;;;1.08;0.38;;;12.80;99.90;;;;;;5015093;28;20509;-74
2021/05/26 06:47:25;;;;;;;0.93;0.30;;;12.80;99.90;;;;;;5017281;28;20081;-75
2021/05/26 06:49:51;;;;;;;1.08;0.43;;;12.80;99.90;;;;;;5019251;28;20098;-74
2021/05/26 06:52:16;;;;;;;0.98;0.30;;;12.90;99.90;;;;;;5018516;28;20105;-74
2021/05/26 06:54:42;;;;;;;1.70;0.43;;;13.00;99.90;;;;;;5025308;28;20074;-74
2021/05/26 06:57:08;;;;;;;1.33;0.20;;;13.00;99.90;;;;;;5016758;28;21123;-74
2021/05/26 06:59:33;;;;;;;0.43;0.20;;;13.00;99.90;;;;;;5018019;28;20546;-74
2021/05/26 07:01:59;;;;;;;2.67;0.57;;;13.10;99.90;;;;;;5002015;28;20090;-74
2021/05/26 07:04:25;;;;;;;2.95;0.40;;;13.20;99.90;;;;;;5019511;28;20082;-74
2021/05/26 07:06:51;;;;;;;1.67;0.20;;;13.20;99.90;;;;;;4998359;28;20085;-74
2021/05/26 07:09:21;;;;;;;3.97;0.85;;;13.30;99.90;;;;;;5018134;28;20619;-74
2021/05/26 07:11:48;;;;;;;2.25;0.32;;;13.40;99.90;;;;;;5017031;28;20105;-74
2021/05/26 07:14:13;;;;;;;1.70;0.50;;;13.50;99.90;;;;;;5015615;28;20082;-74
2021/05/26 07:16:39;;;;;;;0.82;0.40;;;13.60;99.90;;;;;;5024412;28;20073;-74
2021/05/26 07:19:07;;;;;;;2.15;0.73;;;13.60;99.90;;;;;;5009187;28;20081;-74
2021/05/26 07:21:33;;;;;;;0.73;0.32;;;13.70;99.90;;;;;;5027073;28;20081;-74
2021/05/26 07:23:58;;;;;;;0.88;0.40;;;13.90;99.90;;;;;;4997462;28;20557;-74
2021/05/26 07:26:25;;;;;;;2.33;0.95;;;14.00;99.90;;;;;;5011876;28;20078;-73
2021/05/26 07:28:50;;;;;;;1.08;0.32;;;14.20;99.90;;;;;;4997892;28;20078;-75
2021/05/26 07:31:16;;;;;;;0.80;0.30;;;14.30;99.90;;;;;;5006316;28;20091;-74
2021/05/26 07:33:45;;;;;;;2.72;0.40;;;14.20;99.90;;;;;;5002360;28;20144;-74
2021/05/26 07:36:14;;;;;;;2.75;0.50;;;14.20;99.90;;;;;;5006705;28;20158;-74
2021/05/26 07:38:41;;;;;;;0.82;0.40;;;14.20;99.90;;;;;;5029333;28;20592;-74
2021/05/26 07:41:08;;;;;;;2.75;0.50;;;14.30;99.90;;;;;;5024312;28;20085;-75
2021/05/26 07:43:34;;;;;;;0.73;0.35;;;14.50;99.90;;;;;;5004308;28;20465;-74
2021/05/26 07:46:02;;;;;;;1.40;0.43;;;14.40;99.90;;;;;;5010999;28;20140;-74
2021/05/26 07:48:28;;;;;;;0.63;0.30;;;14.60;99.90;;;;;;5004737;28;20098;-75
2021/05/26 07:50:54;;;;;;;1.08;0.35;;;14.60;99.90;;;;;;5000794;28;20192;-74
2021/05/26 07:53:19;;;;;;;2.05;0.50;;;14.50;99.90;;;;;;5022623;28;20165;-74
2021/05/26 07:55:45;;;;;;;1.25;0.35;;;14.50;99.90;;;;;;5005355;28;20070;-75
2021/05/26 07:58:11;;;;;;;0.52;0.30;;;14.50;99.90;;;;;;5021778;28;20091;-74
2021/05/26 08:00:36;;;;;;;1.35;0.45;;;14.60;99.90;;;;;;4997078;28;20547;-75
2021/05/26 08:03:03;;;;;;;1.15;0.50;;;14.60;99.90;;;;;;4995971;28;20450;-75
2021/05/26 08:05:29;;;;;;;0.88;0.30;;;14.90;99.90;;;;;;5003483;28;20078;-74
2021/05/26 08:07:55;;;;;;;2.00;0.35;;;14.90;99.90;;;;;;5019727;28;20667;-74
2021/05/26 08:10:21;;;;;;;2.53;0.40;;;15.00;99.90;;;;;;5000135;28;20565;-74
2021/05/26 08:12:46;;;;;;;1.10;0.40;;;14.90;99.90;;;;;;5020613;28;20220;-74
2021/05/26 08:15:13;;;;;;;1.08;0.32;;;15.00;99.90;;;;;;5014344;28;20094;-74
2021/05/26 08:17:39;;;;;;;0.30;0.30;;;15.20;99.90;;;;;;5023053;28;20089;-74
2021/05/26 08:20:06;;;;;;;2.03;0.38;;;15.20;99.90;;;;;;5020607;28;20086;-74
2021/05/26 08:22:32;;;;;;;2.22;0.50;;;15.40;99.90;;;;;;5021328;28;20569;-75
2021/05/26 08:24:58;;;;;;;0.80;0.40;;;15.50;99.90;;;;;;5004067;28;20082;-76
2021/05/26 08:27:24;;;;;;;2.63;0.55;;;15.50;98.90;;;;;;5021416;28;20078;-74
2021/05/26 08:29:53;;;;;;;0.82;0.28;;;15.50;99.60;;;;;;5014487;28;20098;-74
2021/05/26 08:32:18;;;;;;;1.45;0.32;;;15.40;99.90;;;;;;5028398;28;20574;-74
2021/05/26 08:34:45;;;;;;;0.60;0.30;;;15.30;99.90;;;;;;5008299;28;20079;-74
2021/05/26 08:37:11;;;;;;;1.20;0.30;;;15.20;95.70;;;;;;5019978;28;20074;-74
2021/05/26 08:39:37;;;;;;;2.03;0.40;;;15.20;96.00;;;;;;5020954;28;20088;-74
2021/05/26 08:42:03;;;;;;;1.10;0.35;;;15.20;96.00;;;;;;5027670;28;20086;-74
2021/05/26 08:44:29;;;;;;;1.02;0.40;;;15.40;98.30;;;;;;5010732;28;20086;-74
2021/05/26 08:46:55;;;;;;;1.10;0.30;;;15.40;98.50;;;;;;5003009;28;20157;-74
2021/05/26 08:49:21;;;;;;;1.10;0.50;;;15.30;96.70;;;;;;5015160;28;20208;-74
2021/05/26 08:51:48;;;;;;;2.17;0.30;;;15.30;97.90;;;;;;5026022;28;20106;-74
2021/05/26 08:54:15;;;;;;;1.77;0.40;;;15.30;97.00;;;;;;5025760;28;20139;-73
2021/05/26 08:56:44;;;;;;;1.13;0.20;;;15.10;97.10;;;;;;5018006;28;20074;-74
2021/05/26 08:59:14;;;;;;;1.13;0.30;;;15.00;97.10;;;;;;5015507;28;20070;-73
2021/05/26 09:01:46;;;;;;;1.73;0.38;;;15.10;97.50;;;;;;5017637;28;20616;-74
2021/05/26 09:04:33;;;;;;;2.08;0.77;;;15.10;96.40;;;;;;4997004;28;20077;-74
2021/05/26 09:07:10;;;;;;;0.40;0.30;;;15.10;96.50;;;;;;5015950;28;20557;-73
2021/05/26 09:09:46;;;;;;;0.50;0.10;;;15.10;96.90;;;;;;5020799;28;20093;-74
2021/05/26 09:12:13;;;;;;;0.90;0.63;;;15.00;97.80;;;;;;5016595;28;20094;-74
2021/05/26 09:14:38;;;;;;;1.83;0.47;;;15.00;97.50;;;;;;4998765;28;20085;-75
2021/05/26 09:17:11;;;;;;;1.23;0.40;;;15.00;97.60;;;;;;5016584;28;20086;-74
2021/05/26 09:19:38;;;;;;;1.75;0.40;;;15.10;97.90;;;;;;5014635;28;20078;-74
2021/05/26 09:22:18;;;;;;;0.90;0.70;;;15.10;99.00;;;;;;5005675;28;20189;-74
2021/05/26 09:24:44;;;;;;;3.40;0.50;;;15.20;96.00;;;;;;5014608;28;20124;-74
2021/05/26 09:27:11;;;;;;;3.70;0.75;;;15.10;97.00;;;;;;5017099;28;20613;-73
2021/05/26 09:29:40;;;;;;;0.30;0.30;;;15.10;96.50;;;;;;5006407;28;20098;-74
2021/05/26 09:32:17;;;;;;;2.22;0.52;;;15.10;98.90;;;;;;4999488;28;20113;-74
2021/05/26 09:34:46;;;;;;;0.57;0.38;;;15.10;99.90;;;;;;5018905;28;20069;-74
2021/05/26 09:37:23;;;;;;;0.90;0.40;;;15.10;99.90;;;;;;5018597;28;20074;-75
2021/05/26 09:40:07;;;;;;;0.75;0.40;;;15.00;97.90;;;;;;5011644;28;20089;-75
2021/05/26 09:42:35;;;;;;;1.55;0.43;;;15.00;99.00;;;;;;5017492;28;20184;-75
2021/05/26 09:45:15;;;;;;;0.85;0.43;;;15.00;97.30;;;;;;5013950;28;20161;-74
2021/05/26 09:47:46;;;;;;;2.47;0.68;;;15.00;96.80;;;;;;5017136;28;20078;-74
2021/05/26 09:50:24;;;;;;;1.15;0.50;;;15.10;98.00;;;;;;5019766;28;20094;-74
2021/05/26 09:52:53;;;;;;;0.50;0.32;;;15.10;97.50;;;;;;5024104;28;20674;-74
2021/05/26 09:55:21;;;;;;;2.22;0.50;;;15.10;97.30;;;;;;4998686;28;20613;-74
2021/05/26 09:57:51;;;;;;;2.60;0.20;;;15.10;97.70;;;;;;5003393;28;20084;-74
2021/05/26 10:00:18;;;;;;;1.05;0.40;;;15.10;96.50;;;;;;5001792;28;22351;-74
2021/05/26 10:02:45;;;;;;;1.00;0.35;;;15.00;95.60;;;;;;5025022;28;20112;-74
2021/05/26 10:05:14;;;;;;;3.05;0.60;;;15.10;96.60;;;;;;4998107;28;20082;-74
2021/05/26 10:07:40;;;;;;;1.30;0.40;;;15.20;96.70;;;;;;5015373;28;20074;-74
2021/05/26 10:10:12;;;;;;;0.60;0.30;;;15.30;96.40;;;;;;5019597;28;20097;-74
2021/05/26 10:12:42;;;;;;;0.85;0.30;;;15.30;97.10;;;;;;5020139;28;20438;-73
2021/05/26 10:15:11;;;;;;;0.57;0.47;;;15.30;96.20;;;;;;5012170;28;20407;-73
2021/05/26 10:17:40;;;;;;;0.68;0.20;;;15.30;95.70;;;;;;5019550;28;20078;-74
2021/05/26 10:20:09;;;;;;;1.25;0.63;;;15.30;97.60;;;;;;5014841;28;20140;-74
2021/05/26 10:22:36;;;;;;;2.47;0.22;;;15.40;99.00;;;;;;5029357;28;20089;-74
2021/05/26 10:25:10;;;;;;;1.13;0.13;;;15.40;97.30;;;;;;5022458;28;20794;-74
2021/05/26 10:27:39;;;;;;;0.98;0.40;;;15.30;95.40;;;;;;5016614;28;20093;-73
2021/05/26 10:30:07;;;;;;;1.70;0.30;;;15.50;98.20;;;;;;5018760;28;20136;-73
2021/05/26 10:32:52;;;;;;;1.70;0.30;;;15.60;98.50;;;;;;5028607;28;20097;-73
2021/05/26 10:35:18;;;;;;;0.63;0.30;;;15.70;95.10;;;;;;5003279;28;20088;-73
2021/05/26 10:37:46;;;;;;;0.85;0.40;;;15.70;96.00;;;;;;5029821;28;20156;-74
2021/05/26 10:40:30;;;;;;;2.85;0.60;;;15.80;97.00;;;;;;5003529;28;20066;-73
2021/05/26 10:43:17;;;;;;;1.30;0.40;;;15.80;93.20;;;;;;5003723;28;20094;-74
2021/05/26 10:45:45;;;;;;;2.22;0.40;;;15.90;94.40;;;;;;5018587;28;20082;-74
2021/05/26 10:48:11;;;;;;;1.50;0.55;;;15.90;95.70;;;;;;5021735;28;20075;-74
2021/05/26 10:50:57;;;;;;;2.60;0.50;;;15.90;96.70;;;;;;5011967;28;20101;-73
2021/05/26 10:53:23;;;;;;;1.05;0.20;;;15.90;94.30;;;;;;5021543;28;20231;-73
2021/05/26 10:55:53;;;;;;;3.40;0.47;;;16.00;95.00;;;;;;5002945;28;20082;-73
2021/05/26 10:58:35;;;;;;;1.52;0.35;;;16.00;92.10;;;;;;5004016;28;20132;-73
2021/05/26 11:01:03;;;;;;;0.40;0.30;;;15.90;93.70;;;;;;5016770;28;20620;-73
2021/05/26 11:03:40;;;;;;;1.30;0.63;;;16.10;94.90;;;;;;5021771;28;20727;-74
2021/05/26 11:06:15;;;;;;;2.58;0.52;;;16.20;96.70;;;;;;5024832;28;20081;-74
2021/05/26 11:09:15;;;;;;;0.70;0.38;;;16.20;94.20;;;;;;5017119;28;20745;-74
2021/05/26 11:11:37;;;;;;;1.88;0.40;;;16.10;92.50;;;;;;5018051;28;20144;-74
2021/05/26 11:14:16;;;;;;;2.05;0.40;;;16.20;93.20;;;;;;5021664;28;20080;-74
2021/05/26 11:16:49;;;;;;;1.88;0.50;;;16.30;97.80;;;;;;5020023;28;21035;-74
2021/05/26 11:19:21;;;;;;;2.55;0.35;;;16.20;93.30;;;;;;5005973;28;20637;-74
2021/05/26 11:22:02;;;;;;;2.38;0.80;;;16.10;94.70;;;;;;5001489;28;20098;-74
2021/05/26 11:24:34;;;;;;;0.90;0.40;;;16.00;92.70;;;;;;5022626;28;20152;-73
2021/05/26 11:27:15;;;;;;;0.68;0.30;;;15.90;96.30;;;;;;5019099;28;20682;-73
2021/05/26 11:29:40;;;;;;;4.90;0.30;;;16.00;96.90;;;;;;4999104;28;20108;-74
2021/05/26 11:32:21;;;;;;;0.77;0.20;;;16.00;94.80;;;;;;5019047;28;20101;-74
2021/05/26 11:34:51;;;;;;;1.65;0.63;;;16.00;95.50;;;;;;5024467;28;20077;-75
2021/05/26 11:37:31;;;;;;;6.10;1.20;;;16.10;92.60;;;;;;5027331;28;20077;-75
2021/05/26 11:39:57;;;;;;;1.52;0.45;;;15.90;95.70;;;;;;5030578;28;20144;-76
2021/05/26 11:42:29;;;;;;;1.13;0.40;;;16.00;97.60;;;;;;5013178;28;20101;-75
2021/05/26 11:45:05;;;;;;;1.10;0.85;;;16.10;94.80;;;;;;5028385;28;20161;-78
2021/05/26 11:47:45;;;;;;;1.88;0.68;;;16.20;94.70;;;;;;5009791;28;20085;-74
2021/05/26 11:50:16;;;;;;;1.88;0.63;;;15.90;93.60;;;;;;5025494;28;20082;-74
2021/05/26 11:52:50;;;;;;;1.17;0.40;;;16.00;94.50;;;;;;5019615;28;20098;-75
2021/05/26 11:55:18;;;;;;;3.00;0.43;;;16.30;96.30;;;;;;5027923;28;20127;-74
2021/05/26 11:57:47;;;;;;;3.00;0.70;;;16.20;93.70;;;;;;5025876;28;20109;-75
2021/05/26 12:00:32;;;;;;;2.25;0.95;;;16.10;94.30;;;;;;5009227;28;20078;-76
2021/05/26 12:02:58;;;;;;;;;;;16.10;94.60;;;;;;5040757;28;20093;-75
2021/05/26 12:05:40;;;;;;;2.50;0.60;;;16.20;95.50;;;;;;5034964;28;19957;-75
2021/05/26 12:08:22;;;;;;;4.40;0.90;;;16.10;95.90;;;;;;5027643;28;20476;-76
2021/05/26 12:10:58;;;;;;;2.58;0.50;;;16.20;97.00;;;;;;5004208;28;20105;-75
2021/05/26 12:13:25;;;;;;;3.78;1.35;;;16.10;94.80;;;;;;5035720;28;20194;-73
2021/05/26 12:15:52;;;;;;;2.88;0.52;;;16.10;95.60;;;;;;5007321;28;20081;-74
2021/05/26 12:18:18;;;;;;;4.57;1.10;;;16.20;98.40;;;;;;5001832;28;20082;-74
2021/05/26 12:20:46;;;;;;;3.55;0.82;;;16.30;95.00;;;;;;5034907;28;20114;-73
2021/05/26 12:23:12;;;;;;;5.80;0.73;;;16.20;95.20;;;;;;5027027;28;20096;-74
2021/05/26 12:25:40;;;;;;;3.05;0.57;;;16.30;94.80;;;;;;5011679;28;20545;-73
2021/05/26 12:28:18;;;;;;;1.92;0.50;;;16.20;93.60;;;;;;5029942;28;20480;-74
2021/05/26 12:30:44;;;;;;;0.95;0.40;;;16.10;93.90;;;;;;5027746;28;20089;-74
2021/05/26 12:33:17;;;;;;;1.55;0.47;;;16.30;94.50;;;;;;5028520;28;20437;-73
2021/05/26 12:35:43;;;;;;;4.60;0.50;;;16.20;94.10;;;;;;5035174;28;20070;-74
2021/05/26 12:38:18;;;;;;;5.28;1.15;;;16.30;95.90;;;;;;5021266;28;20116;-74
2021/05/26 12:40:44;;;;;;;2.08;0.50;;;16.30;93.50;;;;;;5014761;28;20537;-74
2021/05/26 12:43:28;;;;;;;2.20;1.10;;;16.30;93.80;;;;;;5027057;28;20422;-74
2021/05/26 12:45:57;;;;;;;1.90;0.70;;;16.40;95.50;;;;;;4997731;28;20144;-73
2021/05/26 12:48:30;;;;;;;1.10;0.63;;;16.40;96.20;;;;;;5004328;28;20093;-74
2021/05/26 12:51:02;;;;;;;3.38;0.60;;;16.50;94.70;;;;;;5010324;28;20156;-74
2021/05/26 12:53:34;;;;;;;4.53;0.95;;;16.30;96.00;;;;;;5006862;28;20094;-73
2021/05/26 12:56:00;;;;;;;1.70;0.82;;;16.20;96.10;;;;;;5025797;28;20074;-75
2021/05/26 12:58:27;;;;;;;3.30;0.55;;;16.20;96.80;;;;;;5023813;28;20077;-74